Time;durP1;ratioP1;P1;durP2;ratioP2;P2;SDS_P1;SDS_P2;PMS_P1;PMS_P2;Temp;Humidity;BMP_temperature;BMP_pressure;BME280_temperature;BME280_humidity;BME280_pressure;Samples;Min_cycle;Max_cycle;Signal;HPM_P1;HPM_P2
2023/10/20 00:01:55;;;;;;;10.63;1.70;;;;;;;;;;4180686;28;20049;-61
2023/10/20 00:03:57;;;;;;;9.55;2.85;;;;;;;;;;4180730;28;20045;-62
2023/10/20 00:05:59;;;;;;;12.38;2.80;;;;;;;;;;4180386;28;20080;-61
2023/10/20 00:08:02;;;;;;;10.65;2.38;;;;;;;;;;4180764;28;20063;-61
2023/10/20 00:10:05;;;;;;;8.13;2.67;;;;;;;;;;4180687;28;20128;-61
2023/10/20 00:12:06;;;;;;;10.73;3.50;;;;;;;;;;4180647;28;20516;-60
2023/10/20 00:14:08;;;;;;;13.43;3.00;;;;;;;;;;4180655;28;20103;-61
2023/10/20 00:16:10;;;;;;;6.82;3.10;;;;;;;;;;4180590;28;20041;-61
2023/10/20 00:18:12;;;;;;;15.10;3.58;;;;;;;;;;4180492;28;20053;-62
2023/10/20 00:20:14;;;;;;;;;;;;;;;;;;4180774;28;20400;-61
2023/10/20 00:22:15;;;;;;;9.10;2.33;;;;;;;;;;4180682;28;19925;-61
2023/10/20 00:24:17;;;;;;;10.02;2.20;;;;;;;;;;4180597;28;20045;-62
2023/10/20 00:26:19;;;;;;;7.53;2.75;;;;;;;;;;4180483;28;20454;-61
2023/10/20 00:28:21;;;;;;;11.73;2.03;;;;;;;;;;4180513;28;20439;-62
2023/10/20 00:30:22;;;;;;;12.20;3.78;;;;;;;;;;4180373;28;20071;-62
2023/10/20 00:32:24;;;;;;;12.73;3.38;;;;;;;;;;4180463;28;20493;-61
2023/10/20 00:34:26;;;;;;;15.02;2.72;;;;;;;;;;4180410;28;20079;-61
2023/10/20 00:36:27;;;;;;;12.38;3.00;;;;;;;;;;4163853;28;20648;-62
2023/10/20 00:38:29;;;;;;;13.20;2.38;;;;;;;;;;4179514;28;20048;-62
2023/10/20 00:40:31;;;;;;;11.45;2.95;;;;;;;;;;4180195;28;20045;-60
2023/10/20 00:42:32;;;;;;;12.65;4.00;;;;;;;;;;4180355;28;20029;-61
2023/10/20 00:44:34;;;;;;;5.20;2.42;;;;;;;;;;4180101;28;20045;-61
2023/10/20 00:46:36;;;;;;;8.35;2.75;;;;;;;;;;4180075;28;20510;-61
2023/10/20 00:48:37;;;;;;;11.40;3.33;;;;;;;;;;4180151;28;20044;-62
2023/10/20 00:50:43;;;;;;;13.00;3.25;;;;;;;;;;4180239;28;20144;-61
2023/10/20 00:52:49;;;;;;;5.30;2.15;;;;;;;;;;4180357;28;20045;-61
2023/10/20 00:54:50;;;;;;;8.70;2.50;;;;;;;;;;4180155;28;20045;-61
2023/10/20 00:56:53;;;;;;;16.13;2.60;;;;;;;;;;4180235;28;20045;-62
2023/10/20 00:58:54;;;;;;;;;;;;;;;;;;4179716;28;20044;-62
2023/10/20 01:00:56;;;;;;;19.65;3.95;;;;;;;;;;4180653;28;19929;-61
2023/10/20 01:05:06;;;;;;;13.50;2.67;;;;;;;;;;4140499;28;20100;-65
2023/10/20 01:07:08;;;;;;;14.75;3.53;;;;;;;;;;4146820;28;20054;-64
2023/10/20 01:09:10;;;;;;;9.75;2.53;;;;;;;;;;4147455;28;20042;-64
2023/10/20 01:11:12;;;;;;;17.83;2.83;;;;;;;;;;4147279;28;20540;-64
2023/10/20 01:13:13;;;;;;;12.10;2.22;;;;;;;;;;4147345;28;20048;-64
2023/10/20 01:15:16;;;;;;;6.18;2.55;;;;;;;;;;4147315;28;20078;-65
2023/10/20 01:17:17;;;;;;;5.22;2.72;;;;;;;;;;4147244;28;20053;-64
2023/10/20 01:19:19;;;;;;;11.25;2.67;;;;;;;;;;4147127;28;20592;-64
2023/10/20 01:21:21;;;;;;;15.23;2.58;;;;;;;;;;4147229;28;20042;-65
2023/10/20 01:23:22;;;;;;;11.07;2.67;;;;;;;;;;4129854;28;20097;-64
2023/10/20 01:25:25;;;;;;;10.10;3.75;;;;;;;;;;4147099;28;20073;-64
2023/10/20 01:27:27;;;;;;;11.60;2.55;;;;;;;;;;4147217;28;20049;-64
2023/10/20 01:29:30;;;;;;;10.57;2.58;;;;;;;;;;4147146;28;20045;-64
2023/10/20 01:31:32;;;;;;;10.20;2.83;;;;;;;;;;4146937;28;20073;-64
2023/10/20 01:33:34;;;;;;;6.43;2.33;;;;;;;;;;4147078;28;20464;-65
2023/10/20 01:35:36;;;;;;;15.32;3.92;;;;;;;;;;4147078;28;20053;-64
2023/10/20 01:37:38;;;;;;;12.75;2.45;;;;;;;;;;4147179;28;20061;-64
2023/10/20 01:39:39;;;;;;;19.55;3.65;;;;;;;;;;4146756;28;20578;-64
2023/10/20 01:41:41;;;;;;;10.73;2.15;;;;;;;;;;4146930;28;20113;-64
2023/10/20 01:43:43;;;;;;;10.00;2.55;;;;;;;;;;4145505;28;20505;-64
2023/10/20 01:45:44;;;;;;;5.80;2.58;;;;;;;;;;4130789;28;20030;-64
2023/10/20 01:47:46;;;;;;;10.65;2.05;;;;;;;;;;4145364;28;20049;-65
2023/10/20 01:49:48;;;;;;;11.45;2.42;;;;;;;;;;4149598;28;20111;-64
2023/10/20 01:51:50;;;;;;;13.40;2.75;;;;;;;;;;4150214;28;20061;-64
2023/10/20 01:53:52;;;;;;;10.05;2.85;;;;;;;;;;4150243;28;20048;-64
2023/10/20 01:55:53;;;;;;;9.18;2.22;;;;;;;;;;4149988;28;20099;-64
2023/10/20 01:57:55;;;;;;;8.23;2.42;;;;;;;;;;4148687;28;20529;-64
2023/10/20 01:59:57;;;;;;;10.63;3.05;;;;;;;;;;4149818;28;20046;-64
2023/10/20 02:01:58;;;;;;;8.35;2.22;;;;;;;;;;4149850;28;20382;-64
2023/10/20 02:04:00;;;;;;;8.80;2.72;;;;;;;;;;4149581;28;20130;-64
2023/10/20 02:06:03;;;;;;;5.95;2.72;;;;;;;;;;4149759;28;20038;-65
2023/10/20 02:08:08;;;;;;;7.25;2.80;;;;;;;;;;4149913;28;20046;-64
2023/10/20 02:10:10;;;;;;;11.68;2.67;;;;;;;;;;4149679;28;20138;-64
2023/10/20 02:12:13;;;;;;;6.07;2.15;;;;;;;;;;4149755;28;20488;-64
2023/10/20 02:14:15;;;;;;;9.50;3.30;;;;;;;;;;4149595;28;20050;-64
2023/10/20 02:16:16;;;;;;;12.20;2.05;;;;;;;;;;4149657;28;20057;-64
2023/10/20 02:18:18;;;;;;;6.50;1.98;;;;;;;;;;4149803;28;20045;-65
2023/10/20 02:20:23;;;;;;;11.32;2.92;;;;;;;;;;4131903;28;20039;-64
2023/10/20 02:22:25;;;;;;;13.93;1.77;;;;;;;;;;4149580;28;20034;-64
2023/10/20 02:24:27;;;;;;;5.90;1.73;;;;;;;;;;4132215;28;20518;-64
2023/10/20 02:26:28;;;;;;;5.80;2.22;;;;;;;;;;4149499;28;20077;-64
2023/10/20 02:28:30;;;;;;;4.40;1.65;;;;;;;;;;4149662;28;20057;-64
2023/10/20 02:30:32;;;;;;;5.95;2.47;;;;;;;;;;4144469;28;20061;-65
2023/10/20 02:32:34;;;;;;;6.28;3.17;;;;;;;;;;4149413;28;20484;-64
2023/10/20 02:34:35;;;;;;;7.65;2.08;;;;;;;;;;4149376;28;20042;-65
2023/10/20 02:36:37;;;;;;;5.03;1.90;;;;;;;;;;4149227;28;20052;-64
2023/10/20 02:38:39;;;;;;;9.35;1.75;;;;;;;;;;4149240;28;20057;-65
2023/10/20 02:40:48;;;;;;;8.30;2.35;;;;;;;;;;4156285;28;20049;-64
2023/10/20 02:42:49;;;;;;;8.80;2.90;;;;;;;;;;4165573;28;20065;-64
2023/10/20 02:44:51;;;;;;;9.55;2.08;;;;;;;;;;4154963;28;20386;-64
2023/10/20 02:46:53;;;;;;;8.73;2.42;;;;;;;;;;4141446;28;20088;-64
2023/10/20 02:48:54;;;;;;;10.48;2.38;;;;;;;;;;4132935;28;20042;-65
2023/10/20 02:50:56;;;;;;;3.28;2.13;;;;;;;;;;4132995;28;20517;-65
2023/10/20 02:52:58;;;;;;;7.18;1.83;;;;;;;;;;4132704;28;20078;-65
2023/10/20 02:54:59;;;;;;;8.98;2.05;;;;;;;;;;4132621;28;20069;-65
2023/10/20 02:57:05;;;;;;;15.95;2.47;;;;;;;;;;4132724;28;20441;-64
2023/10/20 02:59:06;;;;;;;10.68;2.05;;;;;;;;;;4132703;28;20039;-65
2023/10/20 03:01:09;;;;;;;9.38;2.35;;;;;;;;;;4131987;28;20122;-64
2023/10/20 03:03:11;;;;;;;11.10;2.63;;;;;;;;;;4132600;28;20042;-64
2023/10/20 03:05:13;;;;;;;6.82;2.72;;;;;;;;;;4142775;28;20041;-65
2023/10/20 03:07:15;;;;;;;9.85;2.42;;;;;;;;;;4148548;28;20070;-64
2023/10/20 03:09:17;;;;;;;13.43;3.85;;;;;;;;;;4148569;28;20413;-64
2023/10/20 03:11:18;;;;;;;14.70;3.25;;;;;;;;;;4147978;28;20068;-64
2023/10/20 03:13:20;;;;;;;10.77;2.75;;;;;;;;;;4148584;28;20460;-64
2023/10/20 03:15:22;;;;;;;7.13;2.53;;;;;;;;;;4148594;28;20052;-64
2023/10/20 03:17:24;;;;;;;6.90;1.83;;;;;;;;;;4148434;28;20042;-64
2023/10/20 03:19:25;;;;;;;10.23;2.13;;;;;;;;;;4127547;28;20482;-65
2023/10/20 03:21:28;;;;;;;7.30;2.15;;;;;;;;;;4132089;28;20665;-65
2023/10/20 03:23:30;;;;;;;9.50;3.08;;;;;;;;;;4142889;28;20046;-64
2023/10/20 03:25:33;;;;;;;;;;;;;;;;;;4148724;28;20076;-64
2023/10/20 03:27:35;;;;;;;13.43;2.17;;;;;;;;;;4148408;28;19968;-65
2023/10/20 03:29:37;;;;;;;;;;;;;;;;;;4148675;28;20049;-64
2023/10/20 03:31:38;;;;;;;12.25;2.83;;;;;;;;;;4148503;28;19932;-64
2023/10/20 03:33:40;;;;;;;15.45;2.53;;;;;;;;;;4136614;28;20042;-64
2023/10/20 03:35:42;;;;;;;3.10;2.25;;;;;;;;;;4138143;28;20050;-64
2023/10/20 03:37:44;;;;;;;7.10;3.00;;;;;;;;;;4159501;28;20088;-65
2023/10/20 03:39:46;;;;;;;9.85;2.55;;;;;;;;;;4164372;28;20045;-64
2023/10/20 03:41:49;;;;;;;10.45;3.28;;;;;;;;;;4164815;28;20053;-63
2023/10/20 03:43:51;;;;;;;7.25;2.13;;;;;;;;;;4164759;28;20125;-65
2023/10/20 03:45:53;;;;;;;9.23;2.20;;;;;;;;;;4164559;28;20064;-64
2023/10/20 03:47:54;;;;;;;11.48;3.20;;;;;;;;;;4148553;28;20041;-64
2023/10/20 03:50:00;;;;;;;9.93;1.90;;;;;;;;;;4148081;28;20074;-64
2023/10/20 03:52:02;;;;;;;6.88;1.75;;;;;;;;;;4148013;28;20065;-65
2023/10/20 03:54:05;;;;;;;5.50;2.40;;;;;;;;;;4148034;28;20046;-64
2023/10/20 03:56:08;;;;;;;17.90;3.55;;;;;;;;;;4148043;28;20417;-65
2023/10/20 03:58:10;;;;;;;8.88;1.75;;;;;;;;;;4148031;28;20049;-64
2023/10/20 04:00:29;;;;;;;11.38;3.03;;;;;;;;;;4147898;28;20112;-64
2023/10/20 04:02:30;;;;;;;10.85;2.35;;;;;;;;;;4148140;28;20038;-64
2023/10/20 04:04:33;;;;;;;7.43;2.20;;;;;;;;;;4147761;28;20085;-64
2023/10/20 04:06:38;;;;;;;14.50;2.63;;;;;;;;;;4147805;28;20046;-64
2023/10/20 04:08:41;;;;;;;12.50;2.95;;;;;;;;;;4147715;28;20050;-64
2023/10/20 04:10:43;;;;;;;10.82;3.25;;;;;;;;;;4147820;28;20046;-64
2023/10/20 04:12:44;;;;;;;12.23;2.50;;;;;;;;;;4146050;28;20097;-64
2023/10/20 04:14:46;;;;;;;9.57;3.28;;;;;;;;;;4146250;28;20460;-64
2023/10/20 04:16:48;;;;;;;11.27;2.30;;;;;;;;;;4136366;28;20103;-64
2023/10/20 04:18:50;;;;;;;;;;;;;;;;;;4148125;28;20116;-64
2023/10/20 04:20:57;;;;;;;10.57;3.33;;;;;;;;;;4147521;28;19921;-64
2023/10/20 04:22:59;;;;;;;9.65;2.38;;;;;;;;;;4146898;28;20413;-64
2023/10/20 04:25:02;;;;;;;7.20;2.05;;;;;;;;;;4147493;28;20033;-64
2023/10/20 04:27:04;;;;;;;9.15;2.55;;;;;;;;;;4144051;28;20505;-64
2023/10/20 04:52:05;;;;;;;7.38;2.30;;;;;;;;;;4147425;28;20038;-64
2023/10/20 04:54:09;;;;;;;11.20;2.30;;;;;;;;;;4146686;28;20049;-64
2023/10/20 04:58:58;;;;;;;5.97;2.42;;;;;;;;;;4062489;29;20059;-65
2023/10/20 05:01:18;;;;;;;8.40;2.47;;;;;;;;;;4116361;28;20848;-65
2023/10/20 05:03:30;;;;;;;11.68;2.45;;;;;;;;;;4143994;28;20136;-63
2023/10/20 05:05:39;;;;;;;8.10;3.17;;;;;;;;;;4146780;28;20041;-65
2023/10/20 05:07:49;;;;;;;7.60;1.90;;;;;;;;;;4146917;28;20121;-64
2023/10/20 05:09:54;;;;;;;8.50;1.88;;;;;;;;;;4146786;28;20046;-64
2023/10/20 05:11:56;;;;;;;9.68;2.60;;;;;;;;;;4147237;28;20132;-64
2023/10/20 05:13:57;;;;;;;15.23;2.38;;;;;;;;;;4147269;28;20046;-64
2023/10/20 05:15:59;;;;;;;8.70;2.05;;;;;;;;;;4142061;28;20442;-64
2023/10/20 05:18:00;;;;;;;9.82;1.50;;;;;;;;;;4146353;28;20501;-64
2023/10/20 05:20:05;;;;;;;12.10;2.97;;;;;;;;;;4146093;28;20045;-66
2023/10/20 05:22:08;;;;;;;11.85;1.73;;;;;;;;;;4146370;28;20049;-66
2023/10/20 05:24:09;;;;;;;12.88;1.75;;;;;;;;;;4148935;28;20401;-66
2023/10/20 05:26:11;;;;;;;9.48;2.22;;;;;;;;;;4138701;28;20080;-66
2023/10/20 05:28:13;;;;;;;11.52;3.38;;;;;;;;;;4150162;28;20049;-66
2023/10/20 05:30:15;;;;;;;4.78;2.20;;;;;;;;;;4163702;28;20142;-66
2023/10/20 05:32:17;;;;;;;9.30;2.67;;;;;;;;;;4166325;28;20073;-66
2023/10/20 05:34:18;;;;;;;;;;;;;;;;;;4151366;28;20038;-66
2023/10/20 05:36:20;;;;;;;14.75;3.25;;;;;;;;;;4150255;28;19925;-66
2023/10/20 05:38:22;;;;;;;12.43;2.72;;;;;;;;;;4150389;28;20042;-66
2023/10/20 05:40:24;;;;;;;12.75;3.00;;;;;;;;;;4149782;28;20117;-66
2023/10/20 05:42:26;;;;;;;14.52;3.08;;;;;;;;;;4150101;28;20112;-66
2023/10/20 05:44:31;;;;;;;10.77;3.33;;;;;;;;;;4150176;28;20050;-67
2023/10/20 05:46:37;;;;;;;18.60;3.08;;;;;;;;;;4149823;28;20041;-66
2023/10/20 05:48:39;;;;;;;13.13;3.15;;;;;;;;;;4150020;28;20046;-66
2023/10/20 05:50:41;;;;;;;11.57;2.17;;;;;;;;;;4149875;28;20049;-66
2023/10/20 05:52:43;;;;;;;10.50;2.65;;;;;;;;;;4149939;28;20077;-67
2023/10/20 05:54:45;;;;;;;8.20;2.60;;;;;;;;;;4149838;28;20053;-67
2023/10/20 05:56:47;;;;;;;6.13;2.80;;;;;;;;;;4149840;28;20073;-67
2023/10/20 05:58:48;;;;;;;13.05;3.33;;;;;;;;;;4149827;28;20053;-66
2023/10/20 06:00:50;;;;;;;16.70;2.78;;;;;;;;;;4149820;28;20046;-67
2023/10/20 06:03:05;;;;;;;10.70;3.05;;;;;;;;;;4149774;28;20406;-67
2023/10/20 06:05:07;;;;;;;7.55;3.22;;;;;;;;;;4117366;28;20554;-67
2023/10/20 06:07:09;;;;;;;7.40;2.97;;;;;;;;;;4117447;28;20051;-67
2023/10/20 06:09:10;;;;;;;17.35;3.67;;;;;;;;;;4117454;28;20054;-67
2023/10/20 06:11:12;;;;;;;5.90;2.35;;;;;;;;;;4117393;28;20109;-66
2023/10/20 06:13:13;;;;;;;9.88;2.40;;;;;;;;;;4117344;28;20414;-67
2023/10/20 06:15:15;;;;;;;12.60;2.92;;;;;;;;;;4117165;28;20053;-67
2023/10/20 06:17:18;;;;;;;7.28;2.45;;;;;;;;;;4106680;28;20079;-66
2023/10/20 06:19:21;;;;;;;17.52;2.95;;;;;;;;;;4101247;28;20053;-67
2023/10/20 06:21:22;;;;;;;11.07;3.58;;;;;;;;;;4108759;28;20039;-66
2023/10/20 06:23:24;;;;;;;12.57;3.63;;;;;;;;;;4117293;28;20047;-66
2023/10/20 06:25:26;;;;;;;9.43;2.10;;;;;;;;;;4122099;28;20038;-67
2023/10/20 06:27:27;;;;;;;12.77;3.10;;;;;;;;;;4133253;28;20038;-67
2023/10/20 06:29:54;;;;;;;16.73;3.40;;;;;;;;;;4133092;28;20469;-67
2023/10/20 06:31:58;;;;;;;15.70;2.92;;;;;;;;;;4133282;28;20077;-67
2023/10/20 06:34:07;;;;;;;8.25;2.60;;;;;;;;;;4120332;28;20117;-66
2023/10/20 06:36:10;;;;;;;10.27;3.75;;;;;;;;;;4116166;28;20074;-67
2023/10/20 06:38:13;;;;;;;20.17;4.55;;;;;;;;;;4116905;28;20478;-67
2023/10/20 06:40:15;;;;;;;15.75;3.45;;;;;;;;;;4116750;28;20121;-67
2023/10/20 06:42:17;;;;;;;12.88;3.70;;;;;;;;;;4116909;28;20043;-66
2023/10/20 06:44:18;;;;;;;17.02;3.58;;;;;;;;;;4116894;28;20085;-66
2023/10/20 06:46:21;;;;;;;17.33;2.70;;;;;;;;;;4116723;28;20035;-67
2023/10/20 06:48:23;;;;;;;14.15;3.17;;;;;;;;;;4116796;28;20117;-66
2023/10/20 06:50:25;;;;;;;16.52;4.15;;;;;;;;;;4117039;28;20046;-66
2023/10/20 06:52:27;;;;;;;13.45;3.40;;;;;;;;;;4117071;28;20085;-68
2023/10/20 06:54:29;;;;;;;21.63;3.38;;;;;;;;;;4116710;28;20049;-67
2023/10/20 06:56:30;;;;;;;24.25;4.55;;;;;;;;;;4116866;28;20129;-67
2023/10/20 06:58:32;;;;;;;7.80;3.45;;;;;;;;;;4116939;28;20074;-66
2023/10/20 07:00:35;;;;;;;18.55;4.32;;;;;;;;;;4116621;28;20537;-67
2023/10/20 07:02:36;;;;;;;12.85;3.83;;;;;;;;;;4115672;28;20515;-66
2023/10/20 07:04:40;;;;;;;19.45;4.00;;;;;;;;;;4141183;28;20058;-67
2023/10/20 07:06:42;;;;;;;19.08;3.45;;;;;;;;;;4131402;28;20085;-66
2023/10/20 07:08:44;;;;;;;22.58;3.08;;;;;;;;;;4131474;28;20046;-66
2023/10/20 07:10:46;;;;;;;22.33;4.47;;;;;;;;;;4149161;28;20481;-66
2023/10/20 07:12:48;;;;;;;18.98;3.95;;;;;;;;;;4148758;28;20050;-66
2023/10/20 07:14:49;;;;;;;23.52;4.57;;;;;;;;;;4148774;28;20046;-66
2023/10/20 07:16:51;;;;;;;19.42;4.18;;;;;;;;;;4148487;28;20053;-66
2023/10/20 07:18:54;;;;;;;14.93;3.45;;;;;;;;;;4148481;28;20092;-66
2023/10/20 07:20:56;;;;;;;11.75;3.95;;;;;;;;;;4148463;28;20037;-66
2023/10/20 07:22:59;;;;;;;24.60;4.88;;;;;;;;;;4164377;28;20065;-66
2023/10/20 07:25:01;;;;;;;13.32;4.05;;;;;;;;;;4165043;28;20103;-66
2023/10/20 07:27:02;;;;;;;24.50;4.10;;;;;;;;;;4164823;28;20034;-66
2023/10/20 07:29:04;;;;;;;16.30;3.72;;;;;;;;;;4164886;28;20041;-66
2023/10/20 07:31:12;;;;;;;20.63;3.47;;;;;;;;;;4165025;28;20041;-66
2023/10/20 07:33:14;;;;;;;22.67;3.35;;;;;;;;;;4157971;28;20045;-66
2023/10/20 07:35:19;;;;;;;16.65;5.22;;;;;;;;;;4148531;28;20081;-66
2023/10/20 07:37:21;;;;;;;20.88;4.32;;;;;;;;;;4148378;28;20046;-67
2023/10/20 07:39:22;;;;;;;11.35;3.03;;;;;;;;;;4148182;28;20505;-66
2023/10/20 07:41:24;;;;;;;14.55;3.13;;;;;;;;;;4148072;28;20050;-66
2023/10/20 07:43:25;;;;;;;16.00;4.07;;;;;;;;;;4148163;28;20542;-66
2023/10/20 07:45:28;;;;;;;19.05;4.07;;;;;;;;;;4148234;28;20038;-66
2023/10/20 07:47:30;;;;;;;;;;;;;;;;;;4148252;28;20038;-66
2023/10/20 07:49:31;;;;;;;16.07;4.20;;;;;;;;;;4148220;28;20344;-66
2023/10/20 07:51:33;;;;;;;16.75;3.17;;;;;;;;;;4148187;28;20052;-66
2023/10/20 07:53:34;;;;;;;19.75;3.47;;;;;;;;;;4148030;28;20042;-66
2023/10/20 07:55:36;;;;;;;14.98;4.47;;;;;;;;;;4148137;28;20603;-66
2023/10/20 07:57:38;;;;;;;19.67;2.95;;;;;;;;;;4148080;28;20092;-66
2023/10/20 07:59:40;;;;;;;27.20;4.75;;;;;;;;;;4148241;28;20088;-66
2023/10/20 08:01:42;;;;;;;;;;;;;;;;;;4148277;28;20573;-67
2023/10/20 08:03:47;;;;;;;14.95;3.55;;;;;;;;;;4147792;28;19925;-66
2023/10/20 08:05:49;;;;;;;17.08;3.28;;;;;;;;;;4147920;28;20497;-67
2023/10/20 08:07:52;;;;;;;16.70;3.15;;;;;;;;;;4147950;28;20516;-66
2023/10/20 08:09:54;;;;;;;16.58;4.05;;;;;;;;;;4147975;28;20096;-65
2023/10/20 08:11:57;;;;;;;13.85;3.45;;;;;;;;;;4147838;28;20103;-66
2023/10/20 08:13:59;;;;;;;20.77;5.22;;;;;;;;;;4137818;28;20129;-66
2023/10/20 08:16:03;;;;;;;14.38;3.88;;;;;;;;;;4141196;28;20038;-67
2023/10/20 08:18:06;;;;;;;19.75;3.92;;;;;;;;;;4144351;28;20103;-66
2023/10/20 08:20:10;;;;;;;19.98;4.53;;;;;;;;;;4164046;28;20073;-66
2023/10/20 08:22:12;;;;;;;17.13;3.55;;;;;;;;;;4164055;28;20037;-66
2023/10/20 08:24:14;;;;;;;16.20;2.47;;;;;;;;;;4163985;28;20116;-67
2023/10/20 08:26:16;;;;;;;10.43;2.25;;;;;;;;;;4164072;28;20041;-66
2023/10/20 08:28:18;;;;;;;14.00;3.38;;;;;;;;;;4164043;28;20116;-65
2023/10/20 08:30:23;;;;;;;7.45;2.88;;;;;;;;;;4146432;28;20092;-66
2023/10/20 08:32:24;;;;;;;13.77;3.25;;;;;;;;;;4163936;28;20095;-66
2023/10/20 08:34:26;;;;;;;17.02;2.92;;;;;;;;;;4131379;28;20085;-66
2023/10/20 08:36:27;;;;;;;10.70;1.98;;;;;;;;;;4131414;28;20074;-66
2023/10/20 08:38:29;;;;;;;20.60;3.20;;;;;;;;;;4131298;28;20073;-67
2023/10/20 08:40:34;;;;;;;11.50;2.40;;;;;;;;;;4131199;28;20057;-67
2023/10/20 08:42:56;;;;;;;23.35;3.38;;;;;;;;;;4131290;28;20053;-67
2023/10/20 08:44:57;;;;;;;17.08;3.28;;;;;;;;;;4113984;28;20137;-66
2023/10/20 08:46:59;;;;;;;19.55;2.95;;;;;;;;;;4131136;28;20048;-67
2023/10/20 08:49:02;;;;;;;11.80;3.22;;;;;;;;;;4131234;28;20053;-66
2023/10/20 08:51:04;;;;;;;15.65;4.00;;;;;;;;;;4131259;28;20038;-66
2023/10/20 08:53:06;;;;;;;14.48;3.25;;;;;;;;;;4131136;28;20042;-66
2023/10/20 08:55:08;;;;;;;11.73;4.25;;;;;;;;;;4114130;28;20049;-67
2023/10/20 08:57:11;;;;;;;20.20;3.67;;;;;;;;;;4131171;28;20046;-66
2023/10/20 08:59:12;;;;;;;13.23;2.80;;;;;;;;;;4133116;28;20043;-66
2023/10/20 09:01:15;;;;;;;18.00;4.68;;;;;;;;;;4134619;28;20070;-66
2023/10/20 09:03:16;;;;;;;18.20;3.08;;;;;;;;;;4138766;28;20131;-66
2023/10/20 09:05:22;;;;;;;18.80;5.18;;;;;;;;;;4150870;28;20486;-66
2023/10/20 09:07:23;;;;;;;9.13;2.63;;;;;;;;;;4150762;28;20462;-66
2023/10/20 09:09:25;;;;;;;13.35;2.78;;;;;;;;;;4150782;28;20048;-67
2023/10/20 09:11:32;;;;;;;13.15;2.65;;;;;;;;;;4150518;28;20068;-66
2023/10/20 09:13:37;;;;;;;17.52;2.45;;;;;;;;;;4150831;28;20540;-66
2023/10/20 09:15:39;;;;;;;16.40;3.78;;;;;;;;;;4163472;28;20125;-68
2023/10/20 09:17:41;;;;;;;18.42;4.45;;;;;;;;;;4150449;28;20066;-67
2023/10/20 09:19:42;;;;;;;17.85;3.33;;;;;;;;;;4150562;28;20079;-67
2023/10/20 09:21:44;;;;;;;21.63;3.38;;;;;;;;;;4150428;28;20041;-66
2023/10/20 09:24:12;;;;;;;13.43;3.85;;;;;;;;;;4150681;28;20042;-66
2023/10/20 09:26:14;;;;;;;19.48;3.63;;;;;;;;;;4146156;28;20046;-66
2023/10/20 09:28:17;;;;;;;12.90;3.20;;;;;;;;;;4150312;28;20046;-66
2023/10/20 09:30:19;;;;;;;19.42;3.60;;;;;;;;;;4150242;28;20041;-67
2023/10/20 09:32:21;;;;;;;;;;;;;;;;;;4150796;28;20541;-66
2023/10/20 09:34:23;;;;;;;25.77;2.95;;;;;;;;;;4134250;28;19957;-67
2023/10/20 09:36:24;;;;;;;20.38;4.13;;;;;;;;;;4134250;28;20050;-66
2023/10/20 09:38:27;;;;;;;23.30;2.95;;;;;;;;;;4133943;28;20099;-69
2023/10/20 09:40:28;;;;;;;12.55;4.95;;;;;;;;;;4134077;28;20077;-68
2023/10/20 09:42:32;;;;;;;23.13;3.85;;;;;;;;;;4133889;28;20054;-66
2023/10/20 09:44:40;;;;;;;22.38;3.55;;;;;;;;;;4140634;28;20038;-66
2023/10/20 09:46:54;;;;;;;21.80;4.47;;;;;;;;;;4147247;28;20513;-67
2023/10/20 09:48:56;;;;;;;21.35;3.53;;;;;;;;;;4131257;28;20904;-67
2023/10/20 09:50:58;;;;;;;19.60;4.10;;;;;;;;;;4149342;28;20038;-66
2023/10/20 09:53:00;;;;;;;23.88;4.65;;;;;;;;;;4149976;28;20048;-66
2023/10/20 09:55:01;;;;;;;17.27;3.13;;;;;;;;;;4149398;28;20049;-66
2023/10/20 09:57:05;;;;;;;23.77;3.80;;;;;;;;;;4149982;28;20069;-66
2023/10/20 09:59:09;;;;;;;16.38;5.57;;;;;;;;;;4149137;28;20066;-66
2023/10/20 10:01:14;;;;;;;12.60;3.08;;;;;;;;;;4149083;28;20041;-66
2023/10/20 10:03:27;;;;;;;18.42;4.28;;;;;;;;;;4149365;28;20062;-66
2023/10/20 10:05:29;;;;;;;16.85;4.03;;;;;;;;;;4149721;28;20493;-67
2023/10/20 10:07:32;;;;;;;26.73;4.80;;;;;;;;;;4145973;28;20045;-68
2023/10/20 10:09:35;;;;;;;14.98;3.65;;;;;;;;;;4142588;28;20453;-67
2023/10/20 10:11:42;;;;;;;23.67;3.67;;;;;;;;;;4142262;28;20042;-65
2023/10/20 10:13:44;;;;;;;22.27;3.25;;;;;;;;;;4149186;28;20516;-66
2023/10/20 10:15:47;;;;;;;19.80;3.38;;;;;;;;;;4147368;28;20067;-66
2023/10/20 10:17:51;;;;;;;16.35;2.15;;;;;;;;;;4149402;28;20063;-66
2023/10/20 10:19:54;;;;;;;23.55;3.17;;;;;;;;;;4148876;28;20034;-66
2023/10/20 10:21:59;;;;;;;21.55;3.40;;;;;;;;;;4148806;28;20064;-66
2023/10/20 10:24:06;;;;;;;20.50;3.75;;;;;;;;;;4149639;28;20042;-66
2023/10/20 10:26:13;;;;;;;24.35;3.28;;;;;;;;;;4149762;28;20037;-67
2023/10/20 10:28:16;;;;;;;21.20;3.53;;;;;;;;;;4148771;28;20509;-66
2023/10/20 10:30:27;;;;;;;27.40;4.20;;;;;;;;;;4149365;28;20375;-67
2023/10/20 10:32:33;;;;;;;25.42;5.55;;;;;;;;;;4145557;28;20042;-67
2023/10/20 10:34:42;;;;;;;24.98;4.00;;;;;;;;;;4146745;28;20719;-67
2023/10/20 10:36:45;;;;;;;19.83;3.33;;;;;;;;;;4145788;28;20038;-66
2023/10/20 10:38:48;;;;;;;22.75;5.00;;;;;;;;;;4148444;28;20410;-67
2023/10/20 10:40:51;;;;;;;22.42;3.38;;;;;;;;;;4146570;28;20056;-66
2023/10/20 10:42:53;;;;;;;18.67;2.85;;;;;;;;;;4149308;28;20108;-66
2023/10/20 10:44:54;;;;;;;20.35;3.75;;;;;;;;;;4148099;28;20413;-65
2023/10/20 10:46:56;;;;;;;24.35;4.25;;;;;;;;;;4148961;28;20088;-66
2023/10/20 10:49:10;;;;;;;23.42;3.33;;;;;;;;;;4148477;28;20038;-66
2023/10/20 10:51:11;;;;;;;18.92;3.40;;;;;;;;;;4149295;28;20108;-67
2023/10/20 10:53:13;;;;;;;16.95;3.45;;;;;;;;;;4147937;28;20104;-66
2023/10/20 10:55:15;;;;;;;;;;;;;;;;;;4149345;28;20474;-67
2023/10/20 10:57:17;;;;;;;17.00;3.53;;;;;;;;;;4149000;28;19932;-66
2023/10/20 10:59:19;;;;;;;27.45;2.80;;;;;;;;;;4145463;28;20399;-66
2023/10/20 11:01:21;;;;;;;18.60;3.20;;;;;;;;;;4147587;28;20125;-67
2023/10/20 11:03:23;;;;;;;30.65;3.67;;;;;;;;;;4148345;28;20045;-66
2023/10/20 11:05:27;;;;;;;17.58;3.85;;;;;;;;;;4148840;28;20069;-66
2023/10/20 11:07:30;;;;;;;22.17;3.13;;;;;;;;;;4160477;28;20037;-65
2023/10/20 11:09:33;;;;;;;23.45;3.67;;;;;;;;;;4157302;28;20034;-66
2023/10/20 11:11:34;;;;;;;;;;;;;;;;;;4148579;28;20053;-66
2023/10/20 11:13:36;;;;;;;23.42;3.67;;;;;;;;;;4145923;28;20481;-67
2023/10/20 11:15:39;;;;;;;20.90;3.08;;;;;;;;;;4146407;28;20129;-66
2023/10/20 11:17:42;;;;;;;17.35;3.30;;;;;;;;;;4145166;28;20185;-66
2023/10/20 11:19:44;;;;;;;19.63;3.55;;;;;;;;;;4147283;28;20038;-65
2023/10/20 11:21:46;;;;;;;;;;;;;;;;;;4147562;28;20279;-66
2023/10/20 11:23:51;;;;;;;25.53;2.87;;;;;;;;;;4148104;28;19922;-67
2023/10/20 11:25:53;;;;;;;33.15;2.92;;;;;;;;;;4144953;28;20299;-67
2023/10/20 11:27:56;;;;;;;21.58;3.17;;;;;;;;;;4148571;28;20501;-66
2023/10/20 11:29:58;;;;;;;22.23;2.88;;;;;;;;;;4148065;28;20069;-66
2023/10/20 11:32:05;;;;;;;22.30;2.85;;;;;;;;;;4147712;28;20042;-66
2023/10/20 11:34:07;;;;;;;17.13;2.83;;;;;;;;;;4145868;28;20034;-66
2023/10/20 11:36:09;;;;;;;14.85;3.28;;;;;;;;;;4148277;28;20038;-66
2023/10/20 11:38:12;;;;;;;19.95;3.63;;;;;;;;;;4148157;28;20066;-67
2023/10/20 11:40:14;;;;;;;19.50;3.50;;;;;;;;;;4148182;28;20042;-67
2023/10/20 11:42:16;;;;;;;22.20;3.58;;;;;;;;;;4148728;28;20038;-66
2023/10/20 11:44:17;;;;;;;22.33;3.35;;;;;;;;;;4147907;28;20038;-68
2023/10/20 11:46:19;;;;;;;31.30;2.90;;;;;;;;;;4143575;28;20057;-68
2023/10/20 11:48:21;;;;;;;24.20;4.00;;;;;;;;;;4142432;28;20042;-68
2023/10/20 11:50:23;;;;;;;24.13;3.60;;;;;;;;;;4146772;28;20045;-68
2023/10/20 11:52:25;;;;;;;17.55;2.60;;;;;;;;;;4140269;28;20045;-67
2023/10/20 11:54:27;;;;;;;21.00;3.13;;;;;;;;;;4148062;28;20046;-68
2023/10/20 11:56:28;;;;;;;18.23;3.00;;;;;;;;;;4148391;28;20096;-69
2023/10/20 11:58:33;;;;;;;30.13;3.83;;;;;;;;;;4147732;28;20387;-69
2023/10/20 12:00:41;;;;;;;23.88;3.55;;;;;;;;;;4147407;28;20096;-69
2023/10/20 12:02:43;;;;;;;24.38;3.03;;;;;;;;;;4150949;28;20033;-69
2023/10/20 12:04:45;;;;;;;20.77;3.67;;;;;;;;;;4164166;28;20103;-69
2023/10/20 12:06:47;;;;;;;26.35;3.35;;;;;;;;;;4164468;28;20076;-68
2023/10/20 12:08:49;;;;;;;28.25;3.63;;;;;;;;;;4155055;28;20041;-69
2023/10/20 12:10:50;;;;;;;18.80;3.47;;;;;;;;;;4147863;28;20413;-67
2023/10/20 12:12:52;;;;;;;18.17;4.18;;;;;;;;;;4147946;28;20140;-68
2023/10/20 12:14:54;;;;;;;25.20;4.22;;;;;;;;;;4147938;28;20116;-68
2023/10/20 12:16:55;;;;;;;20.50;3.65;;;;;;;;;;4147657;28;20045;-68
2023/10/20 12:19:06;;;;;;;25.55;4.13;;;;;;;;;;4147863;28;20092;-67
2023/10/20 12:21:08;;;;;;;34.85;3.53;;;;;;;;;;4146997;28;20070;-69
2023/10/20 12:23:10;;;;;;;28.23;3.72;;;;;;;;;;4139559;28;20093;-68
2023/10/20 12:25:12;;;;;;;28.08;3.50;;;;;;;;;;4139460;28;20038;-68
2023/10/20 12:27:13;;;;;;;27.73;3.90;;;;;;;;;;4128090;28;20071;-68
2023/10/20 12:29:19;;;;;;;22.65;4.15;;;;;;;;;;4146278;28;20065;-69
2023/10/20 12:31:22;;;;;;;26.85;3.55;;;;;;;;;;4146395;28;20053;-68
2023/10/20 12:33:24;;;;;;;29.95;4.80;;;;;;;;;;4145634;28;20560;-68
2023/10/20 12:35:25;;;;;;;37.65;5.22;;;;;;;;;;4147150;28;20080;-68
2023/10/20 12:37:27;;;;;;;22.58;3.47;;;;;;;;;;4147256;28;20045;-69
2023/10/20 12:39:31;;;;;;;22.42;3.20;;;;;;;;;;4146239;28;20045;-68